Time;durP1;ratioP1;P1;durP2;ratioP2;P2;SDS_P1;SDS_P2;PMS_P1;PMS_P2;Temp;Humidity;BMP_temperature;BMP_pressure;BME280_temperature;BME280_humidity;BME280_pressure;Samples;Min_cycle;Max_cycle;Signal;HPM_P1;HPM_P2
2021/12/27 00:01:59;;;;;;;;;8.67;6.33;;;;;11.31;79.57;99685.69;5078941;28;45991;-69
2021/12/27 00:04:24;;;;;;;;;5.50;4.50;;;;;11.31;79.53;99677.84;5077132;28;46127;-68
2021/12/27 00:06:50;;;;;;;;;3.50;3.25;;;;;11.15;79.70;99648.44;5076287;28;45604;-68
2021/12/27 00:09:17;;;;;;;;;6.25;4.25;;;;;11.32;79.27;99671.72;5079047;27;45543;-83
2021/12/27 00:11:47;;;;;;;;;3.67;3.67;;;;;11.38;78.93;99675.97;5078816;28;45607;-79
2021/12/27 00:14:12;;;;;;;;;4.50;3.50;;;;;11.32;79.28;99656.00;5075634;28;45391;-78
2021/12/27 00:16:38;;;;;;;;;3.67;3.33;;;;;11.13;79.52;99620.50;5075563;28;45327;-78
2021/12/27 00:19:04;;;;;;;;;7.00;4.00;;;;;11.31;79.44;99635.03;5081304;27;45490;-77
2021/12/27 00:21:29;;;;;;;;;5.75;2.50;;;;;11.41;79.34;99663.69;5076212;28;45517;-68
2021/12/27 00:23:58;;;;;;;;;3.00;3.00;;;;;11.41;79.61;99657.56;5054837;28;45765;-70
2021/12/27 00:26:23;;;;;;;;;3.00;3.00;;;;;11.40;79.22;99651.47;5079841;28;45275;-79
2021/12/27 00:28:51;;;;;;;;;4.00;2.67;;;;;11.39;79.21;99649.75;5084508;28;45442;-75
2021/12/27 00:31:16;;;;;;;;;3.33;3.33;;;;;11.40;78.85;99647.97;5081606;28;45461;-67
2021/12/27 00:33:42;;;;;;;;;4.00;3.33;;;;;11.42;79.13;99648.81;5075191;28;46304;-74
2021/12/27 00:36:07;;;;;;;;;5.33;3.00;;;;;11.34;79.11;99616.63;5072479;28;45423;-73
2021/12/27 00:38:33;;;;;;;;;4.00;1.75;;;;;11.51;79.05;99647.75;5072709;28;45446;-74
2021/12/27 00:40:58;;;;;;;;;3.00;2.33;;;;;11.37;78.90;99625.31;5072800;28;45445;-66
2021/12/27 00:43:24;;;;;;;;;4.00;3.00;;;;;11.50;78.72;99638.19;5072376;28;46731;-69
2021/12/27 00:45:50;;;;;;;;;5.33;1.33;;;;;11.28;79.09;99601.88;5074478;28;45379;-67
2021/12/27 00:48:15;;;;;;;;;2.00;2.00;;;;;11.56;78.86;99638.06;5081383;28;45635;-67
2021/12/27 00:50:42;;;;;;;;;3.00;2.67;;;;;11.52;78.73;99632.00;5076089;28;45442;-67
2021/12/27 00:53:08;;;;;;;;;4.67;4.00;;;;;11.54;78.39;99639.84;5079036;28;45457;-66
2021/12/27 00:55:34;;;;;;;;;4.00;2.00;;;;;11.36;78.99;99620.94;5081704;28;45480;-68
2021/12/27 00:58:00;;;;;;;;;4.33;3.00;;;;;11.49;78.47;99636.47;5062805;28;45429;-68
2021/12/27 01:00:26;;;;;;;;;7.00;5.00;;;;;11.46;78.56;99638.25;5076591;28;45430;-68
2021/12/27 01:02:53;;;;;;;;;4.33;3.00;;;;;11.46;78.51;99633.00;5091968;27;46437;-68
2021/12/27 01:05:19;;;;;;;;;5.67;3.00;;;;;11.47;79.10;99633.84;5070738;27;45419;-68
2021/12/27 01:07:45;;;;;;;;;6.00;5.75;;;;;11.38;78.77;99620.94;5056706;28;45708;-67
2021/12/27 01:17:47;;;;;;;;;2.33;2.33;;;;;11.45;78.94;99617.28;5075727;28;45549;-65
2021/12/27 01:20:19;;;;;;;;;5.67;2.33;;;;;11.36;78.51;99605.22;5075502;28;45397;-67
2021/12/27 01:22:45;;;;;;;;;5.33;2.00;;;;;11.30;78.46;99591.38;5074265;27;45393;-66
2021/12/27 01:25:12;;;;;;;;;4.00;3.00;;;;;11.34;78.58;99590.41;5057889;28;45459;-70
2021/12/27 01:27:39;;;;;;;;;2.67;2.00;;;;;11.51;78.29;99611.94;5079200;28;45386;-74
2021/12/27 01:30:08;;;;;;;;;2.00;2.00;;;;;11.30;78.71;99580.91;5079718;28;45319;-66
2021/12/27 01:32:39;;;;;;;;;2.67;0.67;;;;;11.49;78.42;99611.09;5079130;27;46340;-66
2021/12/27 01:35:07;;;;;;;;;3.33;2.00;;;;;11.45;78.32;99601.56;5078548;27;45340;-67
2021/12/27 01:37:33;;;;;;;;;3.00;1.33;;;;;11.49;78.43;99594.50;5075106;28;45514;-70
2021/12/27 01:39:59;;;;;;;;;3.00;2.00;;;;;11.33;78.52;99575.59;5072863;28;45379;-67
2021/12/27 01:42:24;;;;;;;;;4.00;1.00;;;;;11.40;78.06;99578.03;5076991;28;45982;-71
2021/12/27 01:44:50;;;;;;;;;3.00;2.00;;;;;11.38;78.44;99571.09;5065771;27;45890;-68
2021/12/27 01:47:16;;;;;;;;;2.33;1.33;;;;;11.48;78.72;99598.00;5064337;28;45348;-69
2021/12/27 01:49:41;;;;;;;;;3.00;1.67;;;;;11.51;78.25;99593.59;5064622;28;45466;-68
2021/12/27 01:52:07;;;;;;;;;4.00;2.33;;;;;11.48;78.43;99583.13;5075362;28;45755;-70
2021/12/27 01:54:33;;;;;;;;;2.00;2.00;;;;;11.25;78.75;99547.75;5078409;28;45847;-66
2021/12/27 01:57:00;;;;;;;;;4.33;2.67;;;;;11.23;78.81;99554.78;5078646;27;45461;-70
2021/12/27 01:59:26;;;;;;;;;2.67;2.33;;;;;11.23;78.74;99562.66;5076113;28;45266;-71
2021/12/27 02:01:52;;;;;;;;;2.00;2.00;;;;;11.39;78.89;99588.56;5074424;28;45564;-69
2021/12/27 02:04:22;;;;;;;;;5.67;2.67;;;;;11.12;78.87;99550.66;5074324;28;45568;-68
2021/12/27 02:06:48;;;;;;;;;1.67;1.67;;;;;11.40;79.11;99600.78;5073694;28;45879;-66
2021/12/27 02:09:14;;;;;;;;;6.25;2.50;;;;;11.38;79.57;99599.94;5075106;28;45292;-67
2021/12/27 02:11:40;;;;;;;;;2.67;2.67;;;;;11.32;79.14;99581.69;5071515;28;45563;-68
2021/12/27 02:14:06;;;;;;;;;2.33;2.00;;;;;11.38;79.32;99589.47;5076844;28;45390;-69
2021/12/27 02:16:35;;;;;;;;;2.67;2.00;;;;;11.40;79.33;99587.69;5054007;28;45370;-71
2021/12/27 02:19:00;;;;;;;;;4.67;1.67;;;;;11.34;79.21;99578.19;5074418;28;45490;-71
2021/12/27 02:21:26;;;;;;;;;4.67;4.00;;;;;11.38;79.59;99579.84;5078108;28;46268;-68
2021/12/27 02:23:54;;;;;;;;;2.00;2.00;;;;;11.02;79.45;99515.91;5076129;28;45583;-67
2021/12/27 02:26:21;;;;;;;;;3.67;1.67;;;;;11.28;79.07;99557.31;5074215;27;45383;-68
2021/12/27 02:28:49;;;;;;;;;3.00;2.25;;;;;11.10;79.14;99524.47;5055920;28;45330;-69
2021/12/27 02:31:16;;;;;;;;;3.00;3.00;;;;;11.38;79.17;99564.09;5073408;28;45720;-78
2021/12/27 02:33:43;;;;;;;;;3.67;3.67;;;;;11.35;79.18;99565.94;5072569;28;45567;-68
2021/12/27 02:36:11;;;;;;;;;3.00;3.00;;;;;11.25;79.27;99555.63;5073993;28;45513;-72
2021/12/27 02:38:39;;;;;;;;;8.25;3.75;;;;;11.25;79.63;99558.25;5075593;28;45651;-69
2021/12/27 02:41:07;;;;;;;;;6.67;4.67;;;;;11.22;80.22;99557.44;5078852;28;46533;-67
2021/12/27 02:43:35;;;;;;;;;4.25;4.25;;;;;11.28;79.65;99565.19;5077621;28;45402;-68
2021/12/27 02:46:09;;;;;;;;;3.50;3.50;;;;;11.10;79.87;99536.72;5073940;28;45431;-71
2021/12/27 02:48:39;;;;;;;;;3.00;2.00;;;;;11.21;79.85;99553.09;5073710;28;45296;-71
2021/12/27 02:51:06;;;;;;;;;5.00;4.00;;;;;11.32;80.08;99558.13;5075597;28;46126;-70
2021/12/27 02:53:31;;;;;;;;;4.00;4.00;;;;;11.36;79.55;99565.03;5056226;28;45453;-69
2021/12/27 02:55:59;;;;;;;;;3.50;3.50;;;;;11.33;79.68;99555.47;5073932;28;45634;-69
2021/12/27 02:58:26;;;;;;;;;6.00;4.25;;;;;11.24;79.83;99546.03;5074176;28;45304;-71
2021/12/27 03:00:56;;;;;;;;;4.00;4.00;;;;;11.28;80.07;99545.97;5076443;28;46095;-75
2021/12/27 03:03:22;;;;;;;;;5.75;3.50;;;;;11.31;79.93;99545.91;5073827;28;45697;-70
2021/12/27 03:05:48;;;;;;;;;5.00;2.75;;;;;11.14;79.81;99501.69;5073383;28;45673;-74
2021/12/27 03:08:15;;;;;;;;;4.00;4.00;;;;;11.22;79.31;99523.34;5073284;28;45367;-67
2021/12/27 03:10:44;;;;;;;;;3.67;2.00;;;;;11.27;79.34;99533.75;5073607;28;45565;-70
2021/12/27 03:13:17;;;;;;;;;7.00;3.00;;;;;11.17;79.56;99535.69;5073287;28;45437;-71
2021/12/27 03:15:43;;;;;;;;;4.75;4.25;;;;;11.09;79.42;99514.03;5077828;28;45338;-69
2021/12/27 03:18:08;;;;;;;;;3.00;3.00;;;;;11.25;79.35;99542.53;5074563;27;45677;-72
2021/12/27 03:20:34;;;;;;;;;4.00;4.00;;;;;11.22;79.44;99525.97;5073140;28;46069;-70
2021/12/27 03:23:00;;;;;;;;;6.25;4.25;;;;;11.16;79.02;99513.03;5072775;28;45777;-68
2021/12/27 03:25:26;;;;;;;;;6.33;4.00;;;;;11.16;79.40;99519.13;5072541;28;45534;-69
2021/12/27 03:27:52;;;;;;;;;3.33;3.33;;;;;11.25;79.12;99534.66;5077193;28;46046;-68
2021/12/27 03:30:22;;;;;;;;;6.00;3.75;;;;;11.23;78.99;99520.72;5076134;27;46149;-72
2021/12/27 03:32:48;;;;;;;;;5.75;3.75;;;;;11.11;79.20;99494.75;5072421;28;45637;-69
2021/12/27 03:35:18;;;;;;;;;6.75;4.00;;;;;11.13;79.08;99506.09;5075798;28;45508;-69
2021/12/27 03:37:50;;;;;;;;;4.25;4.25;;;;;11.18;79.35;99504.22;5076815;28;45527;-67
2021/12/27 03:40:18;;;;;;;;;4.75;4.25;;;;;11.23;79.50;99512.84;5075970;28;45489;-70
2021/12/27 03:42:50;;;;;;;;;7.75;5.50;;;;;11.28;79.00;99511.91;5077456;28;45319;-67
2021/12/27 03:45:18;;;;;;;;;6.25;4.50;;;;;11.26;79.05;99509.31;5077759;28;45449;-71
2021/12/27 03:47:44;;;;;;;;;4.75;4.00;;;;;11.15;78.99;99480.72;5077398;28;45370;-69
2021/12/27 03:50:10;;;;;;;;;2.75;2.75;;;;;11.24;78.99;99496.22;5078917;28;45683;-71
2021/12/27 03:52:37;;;;;;;;;4.25;4.25;;;;;11.24;79.47;99496.22;5078195;28;45457;-72
2021/12/27 03:55:05;;;;;;;;;3.50;3.50;;;;;11.07;78.89;99468.66;5077229;28;45378;-75
2021/12/27 03:57:32;;;;;;;;;6.50;3.75;;;;;11.10;79.30;99465.97;5077103;28;45402;-68
2021/12/27 04:02:42;;;;;;;;;9.00;3.33;;;;;11.15;79.00;99474.59;5076322;28;45238;-74
2021/12/27 04:05:11;;;;;;;;;4.00;3.25;;;;;11.24;79.07;99490.13;5077199;27;45427;-69
2021/12/27 04:07:38;;;;;;;;;5.00;4.00;;;;;11.12;78.70;99464.19;5076784;28;45353;-67
2021/12/27 04:10:06;;;;;;;;;4.75;3.50;;;;;11.18;79.02;99482.41;5072632;28;46382;-70
2021/12/27 04:12:32;;;;;;;;;2.75;2.75;;;;;11.17;78.77;99478.91;5076288;28;45434;-68
2021/12/27 04:14:57;;;;;;;;;5.25;4.25;;;;;11.18;79.03;99479.78;5076961;28;45657;-67
2021/12/27 04:17:23;;;;;;;;;4.75;4.00;;;;;11.01;78.70;99456.56;5077584;28;45525;-70
2021/12/27 04:19:48;;;;;;;;;4.00;3.25;;;;;11.14;78.94;99467.63;5076935;27;45451;-69
2021/12/27 04:22:14;;;;;;;;;7.50;3.50;;;;;10.95;78.96;99426.06;5095291;27;45834;-70
2021/12/27 04:24:40;;;;;;;;;9.00;3.25;;;;;10.42;78.78;99345.97;5076236;28;45473;-68
2021/12/27 04:27:05;;;;;;;;;7.75;4.50;;;;;11.17;78.66;99480.66;5075768;28;45414;-67
2021/12/27 04:29:31;;;;;;;;;6.50;3.25;;;;;10.90;78.67;99448.03;5077406;27;45396;-68
2021/12/27 04:31:56;;;;;;;;;3.25;3.25;;;;;10.94;79.35;99455.81;5080234;27;45533;-68
2021/12/27 04:34:22;;;;;;;;;5.50;3.50;;;;;11.08;79.31;99478.22;5075284;28;45551;-67
2021/12/27 04:36:47;;;;;;;;;5.33;5.33;;;;;11.06;79.11;99478.28;5076303;28;45627;-67
2021/12/27 04:39:13;;;;;;;;;7.00;4.75;;;;;11.08;78.92;99479.13;5075791;28;45345;-67
2021/12/27 04:41:38;;;;;;;;;3.50;3.50;;;;;11.08;79.17;99473.88;5076849;28;45414;-74
2021/12/27 04:44:04;;;;;;;;;6.00;4.50;;;;;11.11;79.30;99479.03;5077200;28;45343;-68
2021/12/27 04:46:30;;;;;;;;;5.50;3.25;;;;;11.12;78.79;99477.28;5075762;28;45782;-68
2021/12/27 04:48:56;;;;;;;;;5.75;3.50;;;;;11.13;78.85;99489.47;5075054;27;45486;-66
2021/12/27 04:51:22;;;;;;;;;9.25;5.50;;;;;11.14;78.81;99486.84;5074938;28;45734;-67
2021/12/27 04:53:49;;;;;;;;;5.50;3.75;;;;;11.08;79.22;99491.31;5075580;27;45601;-68
2021/12/27 04:56:15;;;;;;;;;6.50;5.50;;;;;11.12;79.24;99490.38;5075227;28;45814;-67
2021/12/27 04:58:45;;;;;;;;;4.50;4.00;;;;;11.00;79.06;99474.00;5075457;28;45430;-70
2021/12/27 05:01:11;;;;;;;;;4.00;2.25;;;;;11.10;78.93;99495.63;5051939;28;45655;-67
2021/12/27 05:03:37;;;;;;;;;7.00;5.00;;;;;11.11;78.61;99499.16;5074634;28;45347;-66
2021/12/27 05:06:03;;;;;;;;;8.00;6.50;;;;;11.03;79.07;99480.94;5075755;28;45506;-67
2021/12/27 05:08:29;;;;;;;;;7.50;5.25;;;;;10.95;78.94;99477.63;5075400;28;46572;-67
2021/12/27 05:10:54;;;;;;;;;5.00;4.00;;;;;10.94;78.45;99479.38;5075131;28;45368;-67
2021/12/27 05:13:20;;;;;;;;;8.50;5.75;;;;;11.03;78.82;99494.03;5075508;28;45357;-72
2021/12/27 05:15:47;;;;;;;;;10.25;6.00;;;;;10.98;78.90;99483.66;5075537;27;45442;-67
2021/12/27 05:18:12;;;;;;;;;4.00;2.50;;;;;11.02;78.33;99501.03;5078833;28;45592;-68
2021/12/27 05:20:38;;;;;;;;;4.75;3.50;;;;;10.97;78.53;99489.78;5076236;27;45401;-67
2021/12/27 05:23:04;;;;;;;;;9.75;4.25;;;;;11.02;79.06;99497.56;5075227;28;46404;-66
2021/12/27 05:25:30;;;;;;;;;5.50;5.50;;;;;11.06;78.37;99499.25;5077499;28;45509;-66
2021/12/27 05:27:55;;;;;;;;;9.25;5.25;;;;;11.05;78.77;99505.34;5078995;28;45671;-69
2021/12/27 05:30:21;;;;;;;;;5.50;4.50;;;;;11.06;78.78;99500.97;5070825;28;45423;-69
2021/12/27 05:32:47;;;;;;;;;7.75;6.50;;;;;11.02;78.88;99503.66;5074837;28;45473;-67
2021/12/27 05:35:14;;;;;;;;;10.25;6.00;;;;;11.02;78.77;99490.56;5075165;28;45535;-68
2021/12/27 05:37:40;;;;;;;;;7.50;6.25;;;;;10.79;78.74;99462.19;5075524;28;45421;-69
2021/12/27 05:40:10;;;;;;;;;7.50;6.75;;;;;11.08;78.84;99489.59;5058143;28;45393;-67
2021/12/27 05:42:36;;;;;;;;;6.75;5.50;;;;;10.96;78.67;99459.25;5064204;28;46140;-66
2021/12/27 05:45:04;;;;;;;;;8.25;5.50;;;;;11.07;78.50;99472.13;5064950;28;45434;-68
2021/12/27 05:47:30;;;;;;;;;10.50;7.50;;;;;10.85;78.73;99434.16;5070754;28;46758;-67
2021/12/27 05:49:55;;;;;;;;;7.25;7.25;;;;;11.05;78.47;99455.56;5072200;28;45661;-68
2021/12/27 05:52:21;;;;;;;;;13.00;8.25;;;;;10.84;78.47;99412.31;5074146;28;46306;-69
2021/12/27 05:54:47;;;;;;;;;11.75;7.00;;;;;11.01;78.58;99444.31;5074805;28;45453;-74
2021/12/27 05:57:12;;;;;;;;;9.25;7.25;;;;;10.92;79.20;99420.91;5074293;28;46537;-70
2021/12/27 05:59:38;;;;;;;;;10.00;7.75;;;;;10.99;78.92;99440.84;5074520;27;45437;-76
2021/12/27 06:02:04;;;;;;;;;9.50;7.75;;;;;10.91;78.80;99415.69;5074352;28;45505;-69
2021/12/27 06:04:30;;;;;;;;;17.00;9.50;;;;;10.75;79.22;99397.69;5057490;28;45410;-77
2021/12/27 06:06:55;;;;;;;;;8.25;6.50;;;;;10.85;79.34;99403.59;5077814;28;45691;-67
2021/12/27 06:09:21;;;;;;;;;10.00;8.25;;;;;10.48;78.97;99330.16;5077149;28;45591;-75
2021/12/27 06:11:46;;;;;;;;;12.75;9.25;;;;;10.91;78.99;99392.97;5074695;28;45437;-76
2021/12/27 06:14:12;;;;;;;;;9.00;7.00;;;;;10.74;78.78;99363.66;5075302;28;45693;-69
2021/12/27 06:16:38;;;;;;;;;7.75;6.00;;;;;10.86;78.81;99373.88;5076696;27;46775;-70
2021/12/27 06:19:04;;;;;;;;;7.25;6.75;;;;;10.70;79.11;99338.41;5059275;28;45809;-69
2021/12/27 06:21:31;;;;;;;;;5.75;5.50;;;;;10.85;79.00;99359.06;5058540;27;45940;-67
2021/12/27 06:23:57;;;;;;;;;9.00;7.00;;;;;10.76;78.83;99328.69;5066538;28;45555;-74
2021/12/27 06:26:25;;;;;;;;;8.25;8.00;;;;;10.76;79.03;99336.53;5051672;28;47136;-73
2021/12/27 06:28:50;;;;;;;;;8.50;7.00;;;;;10.75;78.92;99326.97;5073311;28;45553;-75
2021/12/27 06:31:16;;;;;;;;;13.00;10.00;;;;;10.71;79.46;99319.22;5070973;28;45480;-75
2021/12/27 06:33:41;;;;;;;;;11.00;9.00;;;;;10.63;79.30;99314.16;5060452;28;45544;-74
2021/12/27 06:36:07;;;;;;;;;14.50;10.00;;;;;10.54;78.95;99289.00;5058155;28;46089;-69
2021/12/27 06:38:33;;;;;;;;;8.50;8.00;;;;;10.48;79.26;99283.03;5067349;28;45385;-74
2021/12/27 06:41:00;;;;;;;;;12.50;10.00;;;;;10.52;79.11;99287.31;5064479;28;45506;-74
2021/12/27 06:43:28;;;;;;;;;11.75;11.00;;;;;10.45;78.89;99273.50;5062027;28;45779;-76
2021/12/27 06:45:54;;;;;;;;;12.00;11.50;;;;;10.53;78.95;99286.41;5086400;27;48195;-75
2021/12/27 06:48:19;;;;;;;;;14.25;12.50;;;;;10.49;78.33;99267.31;5077719;27;45501;-74
2021/12/27 06:50:45;;;;;;;;;9.50;9.00;;;;;10.34;78.70;99255.38;5070161;27;45861;-74
2021/12/27 06:53:11;;;;;;;;;8.75;8.75;;;;;10.47;78.88;99291.78;5074173;27;45659;-74
2021/12/27 06:55:36;;;;;;;;;10.00;7.25;;;;;10.47;78.74;99302.25;5073658;27;45583;-77
2021/12/27 06:58:03;;;;;;;;;11.00;9.25;;;;;10.30;78.69;99263.34;5072819;27;45536;-75
2021/12/27 07:00:28;;;;;;;;;9.75;6.50;;;;;10.45;78.87;99286.56;5060192;28;45491;-73
2021/12/27 07:02:54;;;;;;;;;8.25;8.00;;;;;10.39;78.74;99274.50;5078142;27;45375;-69
2021/12/27 07:05:19;;;;;;;;;11.00;8.00;;;;;10.49;78.28;99303.94;5074891;27;45338;-74
2021/12/27 07:07:45;;;;;;;;;8.00;6.75;;;;;10.43;79.24;99288.34;5068586;27;45495;-68
2021/12/27 07:10:19;;;;;;;;;8.25;5.00;;;;;10.48;78.09;99298.75;5065764;27;45465;-74
2021/12/27 07:12:45;;;;;;;;;10.00;7.50;;;;;10.47;78.57;99290.03;5074589;28;45880;-67
2021/12/27 07:15:12;;;;;;;;;9.00;7.25;;;;;10.47;78.29;99295.25;5075523;27;45446;-73
2021/12/27 07:17:37;;;;;;;;;10.00;7.50;;;;;10.47;77.80;99292.66;5077209;28;45694;-68
2021/12/27 07:20:05;;;;;;;;;7.25;6.50;;;;;10.18;78.20;99246.97;5080088;27;45208;-69
2021/12/27 07:22:38;;;;;;;;;6.75;6.75;;;;;10.38;77.55;99288.44;5076116;27;45451;-68
2021/12/27 07:25:04;;;;;;;;;5.50;2.50;;;;;10.41;77.78;99287.53;5075063;27;46035;-67
2021/12/27 07:27:31;;;;;;;;;6.75;5.00;;;;;10.25;77.79;99260.78;5075190;27;45375;-72
2021/12/27 07:29:57;;;;;;;;;10.25;6.50;;;;;10.34;77.52;99272.84;5066027;27;45576;-67
2021/12/27 07:32:23;;;;;;;;;6.50;5.75;;;;;10.13;78.01;99234.84;5076254;28;45520;-72
2021/12/27 07:34:48;;;;;;;;;5.50;5.50;;;;;10.38;77.70;99288.44;5090559;27;46771;-68
2021/12/27 07:37:16;;;;;;;;;6.50;5.00;;;;;10.40;77.77;99296.28;5073706;28;45364;-69
2021/12/27 07:39:43;;;;;;;;;5.00;5.00;;;;;10.34;77.59;99286.78;5074011;28;45427;-66
2021/12/27 07:42:09;;;;;;;;;7.00;5.25;;;;;10.43;77.89;99300.59;5055267;28;46256;-67
2021/12/27 07:44:35;;;;;;;;;6.50;6.00;;;;;10.30;77.41;99281.66;5077062;28;47566;-72
2021/12/27 07:47:01;;;;;;;;;5.25;5.25;;;;;10.36;77.58;99290.22;5074363;28;45493;-67
2021/12/27 07:49:26;;;;;;;;;6.00;5.50;;;;;10.32;77.71;99277.25;5073112;28;45569;-69
2021/12/27 07:51:52;;;;;;;;;5.50;5.50;;;;;10.35;77.76;99290.28;5085460;27;45646;-74
2021/12/27 07:54:17;;;;;;;;;6.50;6.50;;;;;10.35;77.84;99283.28;5056954;28;45498;-73
2021/12/27 07:56:43;;;;;;;;;4.75;4.75;;;;;10.33;77.98;99281.59;5080902;28;45466;-67
2021/12/27 07:59:09;;;;;;;;;5.25;4.75;;;;;10.37;77.92;99286.75;5078464;28;45880;-73
2021/12/27 08:01:37;;;;;;;;;3.00;3.00;;;;;10.38;77.50;99288.44;5076597;28;45277;-71
2021/12/27 08:04:04;;;;;;;;;7.00;5.00;;;;;10.29;77.21;99286.00;5076486;28;46132;-71
2021/12/27 08:06:31;;;;;;;;;5.00;5.00;;;;;10.18;77.73;99267.03;5075945;28;45464;-69
2021/12/27 08:08:56;;;;;;;;;6.25;5.50;;;;;10.25;77.48;99271.25;5076397;28;45712;-72
2021/12/27 08:11:24;;;;;;;;;7.75;5.25;;;;;10.27;77.33;99266.84;5076327;28;45503;-69
2021/12/27 08:13:50;;;;;;;;;5.75;5.75;;;;;10.32;77.09;99266.78;5075778;28;46411;-69
2021/12/27 08:16:17;;;;;;;;;6.75;6.75;;;;;10.08;77.09;99232.31;5076308;28;45414;-69
2021/12/27 08:18:46;;;;;;;;;5.00;5.00;;;;;10.35;77.43;99274.59;5078821;28;45392;-71
2021/12/27 08:21:12;;;;;;;;;8.50;6.00;;;;;10.28;77.28;99273.84;5079715;27;45879;-69
2021/12/27 08:23:38;;;;;;;;;7.50;5.00;;;;;10.34;77.37;99271.09;5075338;27;45499;-67
2021/12/27 08:26:03;;;;;;;;;5.25;5.00;;;;;10.11;77.16;99242.75;5075942;27;45523;-70
2021/12/27 08:28:30;;;;;;;;;6.00;6.00;;;;;10.17;77.28;99240.00;5075224;27;45624;-70
2021/12/27 08:30:55;;;;;;;;;6.75;5.00;;;;;10.17;77.45;99234.75;5076311;28;45667;-69
2021/12/27 08:33:21;;;;;;;;;9.00;8.00;;;;;10.13;77.26;99227.88;5068187;28;46433;-67
2021/12/27 08:35:47;;;;;;;;;5.50;5.50;;;;;10.24;77.42;99242.50;5073821;27;45431;-68
2021/12/27 08:38:13;;;;;;;;;6.00;6.00;;;;;10.28;77.09;99254.63;5073966;28;45517;-71
2021/12/27 08:40:39;;;;;;;;;7.75;5.00;;;;;10.13;76.94;99235.75;5075135;28;45339;-68
2021/12/27 08:43:05;;;;;;;;;8.00;6.75;;;;;10.26;77.48;99254.66;5074843;28;45401;-69
2021/12/27 08:45:30;;;;;;;;;5.75;4.75;;;;;10.17;76.96;99247.84;5068865;28;46071;-67
2021/12/27 08:47:57;;;;;;;;;6.00;5.00;;;;;10.06;76.91;99228.03;5064150;28;45730;-66
2021/12/27 08:50:22;;;;;;;;;5.50;5.25;;;;;10.26;76.91;99265.13;5074470;28;45429;-67
2021/12/27 08:52:50;;;;;;;;;5.75;5.50;;;;;10.19;77.72;99248.69;5067024;28;46087;-67
2021/12/27 08:55:16;;;;;;;;;5.75;5.00;;;;;10.28;77.24;99250.28;5065481;28;45473;-67
2021/12/27 08:57:43;;;;;;;;;6.25;5.75;;;;;10.33;77.02;99242.34;5075663;28;45291;-67
2021/12/27 09:00:11;;;;;;;;;4.50;3.75;;;;;10.29;77.01;99243.28;5070200;28;45465;-67
2021/12/27 09:02:37;;;;;;;;;8.00;6.00;;;;;10.31;77.05;99238.88;5074893;28;46005;-66
2021/12/27 09:05:07;;;;;;;;;6.00;4.00;;;;;10.16;77.08;99219.13;5066091;28;46422;-68
2021/12/27 09:07:33;;;;;;;;;6.50;6.50;;;;;9.77;76.99;99164.97;5075720;28;45528;-67
2021/12/27 09:09:58;;;;;;;;;5.75;5.00;;;;;10.24;77.73;99238.13;5079011;28;45429;-66
2021/12/27 09:12:24;;;;;;;;;7.00;5.00;;;;;9.82;77.20;99174.44;5068580;28;45950;-67
2021/12/27 09:14:50;;;;;;;;;4.50;4.50;;;;;9.94;77.20;99189.88;5075467;28;45674;-68
2021/12/27 09:17:17;;;;;;;;;5.75;5.00;;;;;10.12;77.54;99223.53;5074071;28;45495;-69
2021/12/27 09:19:43;;;;;;;;;5.00;5.00;;;;;10.15;77.50;99227.84;5077797;28;45424;-69
2021/12/27 09:22:10;;;;;;;;;4.50;4.50;;;;;10.11;77.41;99210.50;5068657;28;46212;-67
2021/12/27 09:24:43;;;;;;;;;8.50;5.00;;;;;10.25;77.18;99232.00;5068624;28;45316;-74
2021/12/27 09:27:09;;;;;;;;;9.50;6.00;;;;;10.30;77.33;99240.66;5066371;28;45741;-72
2021/12/27 09:29:35;;;;;;;;;5.50;5.50;;;;;10.22;77.37;99224.19;5055827;28;45536;-68
2021/12/27 09:32:00;;;;;;;;;7.25;6.00;;;;;10.22;77.55;99226.81;5062439;28;46406;-68
2021/12/27 09:34:26;;;;;;;;;4.00;4.00;;;;;10.04;77.66;99217.59;5066253;28;45577;-70
2021/12/27 09:36:52;;;;;;;;;5.00;5.00;;;;;10.20;77.67;99220.75;5068990;28;45447;-76
2021/12/27 09:39:18;;;;;;;;;5.25;5.25;;;;;10.22;77.93;99224.19;5062930;28;45581;-76
2021/12/27 09:41:44;;;;;;;;;3.00;3.00;;;;;10.19;77.68;99222.50;5044203;28;47892;-69
2021/12/27 09:44:10;;;;;;;;;6.50;5.75;;;;;10.13;77.70;99213.91;5069529;28;45535;-75
2021/12/27 09:46:35;;;;;;;;;7.50;6.25;;;;;10.04;78.12;99199.28;5067490;28;45702;-67
2021/12/27 09:49:07;;;;;;;;;6.50;5.00;;;;;9.93;77.71;99180.34;5067049;28;45513;-72
2021/12/27 09:51:34;;;;;;;;;7.50;6.50;;;;;10.18;78.02;99220.81;5045959;28;46743;-66
2021/12/27 09:54:01;;;;;;;;;6.75;6.00;;;;;10.21;78.09;99219.03;5059787;28;45470;-70
2021/12/27 09:56:26;;;;;;;;;6.50;5.50;;;;;10.11;78.28;99197.41;5066253;28;45320;-70
2021/12/27 09:58:53;;;;;;;;;4.25;4.25;;;;;10.21;78.37;99221.63;5060488;28;45496;-70
2021/12/27 10:01:19;;;;;;;;;5.00;5.00;;;;;10.26;77.92;99225.00;5065670;28;45438;-69
2021/12/27 10:03:56;;;;;;;;;7.25;5.00;;;;;10.22;77.82;99210.25;5068127;28;46243;-67
2021/12/27 10:06:24;;;;;;;;;6.00;5.25;;;;;10.24;77.93;99225.03;5063110;28;45513;-67
2021/12/27 10:08:55;;;;;;;;;5.00;4.50;;;;;10.13;78.29;99212.19;5069079;28;45369;-68
2021/12/27 10:11:24;;;;;;;;;5.25;4.00;;;;;10.10;78.04;99200.91;5062826;28;45543;-67
2021/12/27 10:13:59;;;;;;;;;4.00;4.00;;;;;10.24;78.49;99218.94;5068715;28;45619;-66
2021/12/27 10:16:27;;;;;;;;;7.75;6.25;;;;;10.18;78.15;99212.09;5075407;28;45402;-66
2021/12/27 10:18:55;;;;;;;;;4.00;4.00;;;;;10.21;78.15;99222.50;5059556;28;45571;-68
2021/12/27 10:21:21;;;;;;;;;3.00;3.00;;;;;10.18;78.50;99218.19;5054595;28;45759;-69
2021/12/27 10:23:46;;;;;;;;;4.75;4.75;;;;;10.10;78.95;99221.84;5060140;28;46399;-72
2021/12/27 10:26:17;;;;;;;;;6.00;5.00;;;;;10.10;79.12;99214.84;5058287;28;45785;-70
2021/12/27 10:28:43;;;;;;;;;4.00;4.00;;;;;10.00;79.03;99196.78;5058887;28;45623;-68
2021/12/27 10:31:09;;;;;;;;;7.00;6.25;;;;;10.19;79.01;99214.66;5063567;28;45666;-69
2021/12/27 10:33:34;;;;;;;;;5.00;5.00;;;;;10.24;78.91;99217.19;5068861;28;46104;-70
2021/12/27 10:36:01;;;;;;;;;3.00;3.00;;;;;10.12;79.04;99201.75;5057357;28;45572;-71
2021/12/27 10:38:31;;;;;;;;;3.25;2.00;;;;;10.10;78.81;99187.84;5058111;28;45261;-69
2021/12/27 10:41:08;;;;;;;;;5.00;3.50;;;;;10.21;78.83;99209.41;5053635;28;46779;-69
2021/12/27 10:43:46;;;;;;;;;4.00;4.00;;;;;10.25;78.63;99199.72;5059034;28;45441;-71
2021/12/27 10:46:16;;;;;;;;;6.25;5.25;;;;;9.96;78.74;99164.56;5056962;28;45505;-68
2021/12/27 10:48:46;;;;;;;;;3.75;3.75;;;;;10.21;78.67;99201.56;5060831;28;45675;-68
2021/12/27 10:51:12;;;;;;;;;4.00;4.00;;;;;10.22;78.45;99205.03;5054247;28;47343;-69
2021/12/27 10:53:52;;;;;;;;;4.00;4.00;;;;;10.08;78.47;99185.25;5068711;28;45573;-67
2021/12/27 10:56:22;;;;;;;;;5.75;5.25;;;;;9.50;79.08;99103.63;5075057;28;45681;-68
2021/12/27 10:58:52;;;;;;;;;4.00;4.00;;;;;10.15;79.34;99210.38;5058555;28;45571;-67
2021/12/27 11:01:19;;;;;;;;;5.00;4.75;;;;;10.17;79.28;99199.91;5061091;28;46194;-70
2021/12/27 11:03:51;;;;;;;;;4.00;4.00;;;;;10.15;79.54;99205.16;5061229;28;45677;-68
2021/12/27 11:06:20;;;;;;;;;5.25;3.75;;;;;10.12;79.42;99205.22;5059130;28;45470;-68
2021/12/27 11:08:46;;;;;;;;;5.25;5.25;;;;;10.13;79.40;99200.84;5060576;28;45423;-68
2021/12/27 11:11:13;;;;;;;;;5.25;5.25;;;;;10.18;79.23;99220.81;5067414;28;45434;-66
2021/12/27 11:13:41;;;;;;;;;5.00;5.00;;;;;10.05;80.52;99216.69;5074766;28;45794;-66
2021/12/27 11:16:08;;;;;;;;;7.00;5.00;;;;;10.03;79.98;99207.16;5055722;28;45534;-67
2021/12/27 11:18:34;;;;;;;;;5.25;5.25;;;;;9.98;79.43;99186.34;5077022;28;45425;-68
2021/12/27 11:21:10;;;;;;;;;5.00;5.00;;;;;10.11;79.76;99194.81;5074065;28;45484;-72
2021/12/27 11:23:36;;;;;;;;;8.00;7.00;;;;;10.14;79.60;99216.50;5057063;28;45480;-68
2021/12/27 11:26:07;;;;;;;;;6.00;5.00;;;;;10.17;79.87;99216.44;5075223;28;45406;-72
2021/12/27 11:28:36;;;;;;;;;7.50;6.00;;;;;10.27;79.64;99221.50;5073649;28;45535;-68
2021/12/27 11:31:14;;;;;;;;;4.25;4.00;;;;;10.33;79.85;99214.41;5070843;28;45573;-69
2021/12/27 11:33:58;;;;;;;;;7.00;6.00;;;;;10.39;79.20;99219.53;5072028;28;45822;-67
2021/12/27 11:36:29;;;;;;;;;7.50;6.75;;;;;10.39;79.27;99202.94;5075328;28;45489;-68
2021/12/27 11:38:56;;;;;;;;;7.00;6.00;;;;;10.58;79.31;99216.47;5077794;28;45616;-69
2021/12/27 11:41:27;;;;;;;;;7.50;7.00;;;;;10.57;78.70;99207.78;5077632;28;45237;-69